Time;durP1;ratioP1;P1;durP2;ratioP2;P2;SDS_P1;SDS_P2;PMS_P1;PMS_P2;Temp;Humidity;BMP_temperature;BMP_pressure;BME280_temperature;BME280_humidity;BME280_pressure;Samples;Min_cycle;Max_cycle;Signal;HPM_P1;HPM_P2
2022/03/15 00:00:28;;;;;;;;;;;;;;;10.22;25.76;101295.53;4493767;31;34091;-68
2022/03/15 00:02:57;;;;;;;;;;;;;;;10.28;26.09;101291.72;4489230;31;34466;-67
2022/03/15 00:05:24;;;;;;;;;;;;;;;10.11;26.20;101288.03;4486099;31;34040;-69
2022/03/15 00:07:53;;;;;;;;;;;;;;;9.97;26.10;101275.28;4483867;31;34093;-67
2022/03/15 00:10:21;;;;;;;;;;;;;;;9.76;26.95;101277.19;4483475;31;33957;-68
2022/03/15 00:12:51;;;;;;;;;;;;;;;10.12;26.37;101283.53;4485420;31;33041;-67
2022/03/15 00:15:19;;;;;;;;;;;;;;;10.17;26.53;101279.66;4496325;31;34109;-69
2022/03/15 00:17:47;;;;;;;;;;;;;;;10.07;26.61;101278.38;4485286;31;35117;-67
2022/03/15 00:20:17;;;;;;;;;;;;;;;9.38;27.63;101281.63;4486622;31;33855;-67
2022/03/15 00:22:46;;;;;;;;;;;;;;;9.41;27.54;101278.81;4486828;31;33269;-68
2022/03/15 00:25:16;;;;;;;;;;;;;;;9.66;26.83;101275.00;4482736;31;32742;-68
2022/03/15 00:27:45;;;;;;;;;;;;;;;9.66;26.54;101275.00;4488442;31;34461;-67
2022/03/15 00:30:14;;;;;;;;;;;;;;;9.57;26.55;101261.16;4493083;31;32888;-66
2022/03/15 00:32:42;;;;;;;;;;;;;;;9.50;26.85;101262.38;4485286;31;33436;-66
2022/03/15 00:35:17;;;;;;;;;;;;;;;9.27;27.45;101255.38;4491729;31;34205;-70
2022/03/15 00:37:48;;;;;;;;;;;;;;;9.40;27.52;101255.69;4482695;31;33550;-68
2022/03/15 00:40:17;;;;;;;;;;;;;;;9.52;27.72;101271.16;4484953;31;34589;-65
2022/03/15 00:42:53;;;;;;;;;;;;;;;9.72;27.36;101269.38;4492990;31;34479;-67
2022/03/15 00:45:25;;;;;;;;;;;;;;;9.73;27.00;101263.09;4488608;31;34791;-67
2022/03/15 00:47:53;;;;;;;;;;;;;;;9.29;27.78;101264.22;4484483;31;32743;-68
2022/03/15 00:50:21;;;;;;;;;;;;;;;9.52;27.46;101270.31;4486173;31;33082;-68
2022/03/15 00:52:49;;;;;;;;;;;;;;;9.57;27.67;101273.66;4474220;31;32372;-69
2022/03/15 00:55:17;;;;;;;;;;;;;;;9.45;27.98;101269.72;4481231;31;33569;-68
2022/03/15 00:57:44;;;;;;;;;;;;;;;9.14;28.36;101270.22;4487648;31;34050;-68
2022/03/15 01:00:12;;;;;;;;;;;;;;;9.51;28.02;101257.88;4496869;31;34110;-69
2022/03/15 01:02:40;;;;;;;;;;;;;;;9.73;26.95;101250.59;4487279;31;32205;-67
2022/03/15 01:05:08;;;;;;;;;;;;;;;9.75;26.65;101256.72;4483954;31;35200;-67
2022/03/15 01:07:37;;;;;;;;;;;;;;;9.84;26.52;101246.53;4490755;31;34002;-66
2022/03/15 01:10:07;;;;;;;;;;;;;;;9.74;26.77;101240.75;4488363;31;34996;-66
2022/03/15 01:12:35;;;;;;;;;;;;;;;9.69;27.01;101234.75;4487870;31;32902;-66
2022/03/15 01:15:04;;;;;;;;;;;;;;;9.75;26.88;101231.78;4485316;31;35181;-66
2022/03/15 01:17:32;;;;;;;;;;;;;;;9.60;27.42;101232.50;4492582;31;34314;-67
2022/03/15 01:20:00;;;;;;;;;;;;;;;9.68;27.09;101233.91;4486409;31;33201;-68
2022/03/15 01:22:28;;;;;;;;;;;;;;;9.52;27.82;101230.22;4493013;31;33361;-67
2022/03/15 01:24:56;;;;;;;;;;;;;;;9.72;27.44;101219.44;4482221;31;34259;-66
2022/03/15 01:27:23;;;;;;;;;;;;;;;9.57;27.05;101221.03;4492131;31;35203;-65
2022/03/15 01:29:51;;;;;;;;;;;;;;;9.46;28.08;101212.66;4489060;31;33734;-66
2022/03/15 01:32:19;;;;;;;;;;;;;;;9.76;27.23;101218.38;4487459;31;33411;-65
2022/03/15 01:34:47;;;;;;;;;;;;;;;9.82;26.64;101222.53;4482087;31;33020;-65
2022/03/15 01:37:15;;;;;;;;;;;;;;;9.77;26.85;101224.56;4484705;31;34253;-66
2022/03/15 01:39:42;;;;;;;;;;;;;;;9.61;27.33;101215.56;4483876;31;33898;-66
2022/03/15 01:42:11;;;;;;;;;;;;;;;9.57;27.07;101218.38;4475616;31;33314;-66
2022/03/15 01:44:47;;;;;;;;;;;;;;;9.44;27.20;101221.69;4494230;31;33266;-66
2022/03/15 01:47:17;;;;;;;;;;;;;;;9.15;27.77;101217.66;4491134;31;34141;-65
2022/03/15 01:49:46;;;;;;;;;;;;;;;8.68;28.77;101224.19;4494431;31;34674;-63
2022/03/15 01:52:15;;;;;;;;;;;;;;;8.80;28.67;101231.69;4484861;31;31646;-66
2022/03/15 01:54:45;;;;;;;;;;;;;;;9.18;29.03;101233.56;4494505;31;33944;-66
2022/03/15 01:57:16;;;;;;;;;;;;;;;9.02;28.81;101230.72;4484901;31;34014;-65
2022/03/15 01:59:44;;;;;;;;;;;;;;;9.05;28.80;101234.13;4481663;31;33059;-63
2022/03/15 02:02:12;;;;;;;;;;;;;;;9.45;27.63;101237.66;4482243;31;33056;-66
2022/03/15 02:04:41;;;;;;;;;;;;;;;9.45;27.70;101232.31;4468466;31;35352;-65
2022/03/15 02:07:11;;;;;;;;;;;;;;;9.19;28.17;101228.16;4482656;31;34256;-65
2022/03/15 02:09:40;;;;;;;;;;;;;;;9.09;27.94;101218.84;4485116;31;33965;-64
2022/03/15 02:12:08;;;;;;;;;;;;;;;9.04;28.28;101221.69;4487455;31;33129;-64
2022/03/15 02:14:37;;;;;;;;;;;;;;;9.05;28.29;101225.22;4482718;31;34650;-65
2022/03/15 02:17:05;;;;;;;;;;;;;;;8.98;28.93;101221.09;4487359;31;34134;-66
2022/03/15 02:19:35;;;;;;;;;;;;;;;9.09;28.59;101214.34;4494809;31;35291;-64
2022/03/15 02:22:03;;;;;;;;;;;;;;;9.11;28.77;101224.97;4492352;31;33752;-66
2022/03/15 02:24:32;;;;;;;;;;;;;;;9.22;28.04;101212.00;4488537;31;34150;-65
2022/03/15 02:27:02;;;;;;;;;;;;;;;9.17;28.47;101215.81;4486083;31;34122;-65
2022/03/15 02:29:30;;;;;;;;;;;;;;;9.32;27.69;101215.97;4481791;31;34201;-66
2022/03/15 02:32:01;;;;;;;;;;;;;;;9.41;27.56;101222.72;4481986;31;32687;-65
2022/03/15 02:34:30;;;;;;;;;;;;;;;9.41;27.43;101217.38;4481319;31;34386;-67
2022/03/15 02:36:59;;;;;;;;;;;;;;;9.43;27.78;101223.47;4485005;31;33124;-67
2022/03/15 02:39:28;;;;;;;;;;;;;;;9.49;27.76;101235.69;4488775;31;32986;-66
2022/03/15 02:41:56;;;;;;;;;;;;;;;9.41;27.78;101230.72;4481715;31;33032;-67
2022/03/15 02:44:26;;;;;;;;;;;;;;;9.16;28.37;101222.97;4490911;31;31989;-66
2022/03/15 02:46:54;;;;;;;;;;;;;;;9.13;27.79;101231.09;4481309;31;34189;-64
2022/03/15 02:49:24;;;;;;;;;;;;;;;8.90;28.70;101229.47;4481607;31;33753;-65
2022/03/15 02:51:53;;;;;;;;;;;;;;;8.68;29.47;101229.53;4483193;31;32318;-67
2022/03/15 02:54:22;;;;;;;;;;;;;;;8.60;29.57;101239.66;4489868;31;33942;-64
2022/03/15 02:56:52;;;;;;;;;;;;;;;8.53;29.97;101231.06;4482552;31;34419;-67
2022/03/15 02:59:20;;;;;;;;;;;;;;;9.02;29.00;101236.03;4493339;31;34043;-65
2022/03/15 03:01:50;;;;;;;;;;;;;;;9.11;28.64;101227.63;4484382;31;33142;-67
2022/03/15 03:04:22;;;;;;;;;;;;;;;9.18;28.37;101229.09;4492763;31;34945;-67
2022/03/15 03:06:54;;;;;;;;;;;;;;;9.04;28.30;101226.19;4497132;31;35068;-68
2022/03/15 03:09:23;;;;;;;;;;;;;;;8.94;28.20;101222.19;4491211;31;34623;-67
2022/03/15 03:11:53;;;;;;;;;;;;;;;8.98;28.03;101232.66;4486782;31;34484;-65
2022/03/15 03:14:22;;;;;;;;;;;;;;;8.92;28.04;101235.59;4487452;31;34294;-65
2022/03/15 03:16:51;;;;;;;;;;;;;;;8.83;28.16;101228.00;4492865;31;33342;-64
2022/03/15 03:19:21;;;;;;;;;;;;;;;8.81;28.48;101229.87;4488426;31;33912;-65
2022/03/15 03:21:50;;;;;;;;;;;;;;;8.85;28.18;101223.44;4495943;31;33415;-67
2022/03/15 03:24:23;;;;;;;;;;;;;;;8.82;28.32;101234.25;4486319;31;34019;-67
2022/03/15 03:26:51;;;;;;;;;;;;;;;8.78;28.22;101235.34;4495334;31;33155;-65
2022/03/15 03:29:21;;;;;;;;;;;;;;;8.79;28.16;101227.25;4484971;31;32803;-65
2022/03/15 03:31:52;;;;;;;;;;;;;;;8.42;29.30;101227.13;4485068;31;33153;-64
2022/03/15 03:34:21;;;;;;;;;;;;;;;8.69;29.08;101222.41;4483906;31;33434;-65
2022/03/15 03:36:49;;;;;;;;;;;;;;;8.78;29.23;101222.84;4492172;31;33079;-66
2022/03/15 03:39:25;;;;;;;;;;;;;;;8.95;28.85;101230.13;4485912;31;34349;-66
2022/03/15 03:41:54;;;;;;;;;;;;;;;8.97;28.98;101238.06;4491620;31;33258;-69
2022/03/15 03:44:24;;;;;;;;;;;;;;;8.96;28.92;101236.34;4487527;31;34303;-67
2022/03/15 03:46:53;;;;;;;;;;;;;;;9.12;28.29;101233.84;4482340;31;35208;-66
2022/03/15 03:49:22;;;;;;;;;;;;;;;8.95;28.14;101232.78;4481541;31;34265;-65
2022/03/15 03:51:52;;;;;;;;;;;;;;;9.03;27.89;101233.31;4489793;31;32502;-68
2022/03/15 03:54:21;;;;;;;;;;;;;;;8.75;29.12;101233.66;4486375;31;32802;-66
2022/03/15 03:56:49;;;;;;;;;;;;;;;8.70;29.26;101238.34;4486808;31;35955;-67
2022/03/15 03:59:18;;;;;;;;;;;;;;;8.67;29.35;101243.81;4484178;31;35355;-67
2022/03/15 04:01:50;;;;;;;;;;;;;;;8.88;28.61;101239.34;4487481;31;33338;-67
2022/03/15 04:04:25;;;;;;;;;;;;;;;8.71;29.38;101249.91;4484960;31;32953;-67
2022/03/15 04:06:55;;;;;;;;;;;;;;;8.17;29.42;101241.44;4494027;31;34369;-69
2022/03/15 04:09:24;;;;;;;;;;;;;;;7.80;29.75;101234.94;4482303;31;33582;-68
2022/03/15 04:11:53;;;;;;;;;;;;;;;8.33;28.90;101236.34;4482737;31;34394;-68
2022/03/15 04:14:22;;;;;;;;;;;;;;;8.18;29.21;101235.16;4482357;31;35048;-65
2022/03/15 04:16:51;;;;;;;;;;;;;;;8.26;29.21;101233.06;4492685;31;34429;-68
2022/03/15 04:19:19;;;;;;;;;;;;;;;8.39;28.99;101238.78;4498232;31;34726;-66
2022/03/15 04:21:47;;;;;;;;;;;;;;;8.50;28.92;101233.84;4495177;31;32977;-66
2022/03/15 04:24:17;;;;;;;;;;;;;;;8.33;29.83;101234.53;4492475;31;34249;-66
2022/03/15 04:26:47;;;;;;;;;;;;;;;8.40;29.52;101235.19;4484354;31;34016;-67
2022/03/15 04:29:15;;;;;;;;;;;;;;;8.65;28.34;101239.47;4494220;31;33217;-67
2022/03/15 04:31:44;;;;;;;;;;;;;;;8.55;28.56;101245.22;4487119;31;34425;-65
2022/03/15 04:34:12;;;;;;;;;;;;;;;8.43;28.78;101240.37;4497449;31;34985;-64
2022/03/15 04:36:41;;;;;;;;;;;;;;;8.36;28.75;101249.56;4486132;31;33514;-64
2022/03/15 04:39:09;;;;;;;;;;;;;;;7.91;30.04;101251.34;4485083;31;33932;-65
2022/03/15 04:41:38;;;;;;;;;;;;;;;8.06;30.43;101260.56;4488699;31;34512;-65
2022/03/15 04:44:06;;;;;;;;;;;;;;;8.49;29.32;101261.47;4489016;31;34266;-66
2022/03/15 04:46:35;;;;;;;;;;;;;;;8.54;28.68;101259.50;4486833;31;33410;-66
2022/03/15 04:49:06;;;;;;;;;;;;;;;8.66;28.47;101255.41;4481706;32;34811;-65
2022/03/15 04:51:42;;;;;;;;;;;;;;;8.46;28.90;101253.59;4482161;31;35012;-66
2022/03/15 04:54:11;;;;;;;;;;;;;;;8.36;28.73;101255.75;4494642;31;32392;-64
2022/03/15 04:56:40;;;;;;;;;;;;;;;8.22;28.66;101254.56;4482637;31;35205;-67
2022/03/15 04:59:08;;;;;;;;;;;;;;;8.12;29.13;101254.97;4489315;31;34466;-65
2022/03/15 05:01:36;;;;;;;;;;;;;;;7.53;30.42;101268.84;4486328;31;33240;-66
2022/03/15 05:04:04;;;;;;;;;;;;;;;7.60;30.34;101265.00;4487795;31;34099;-65
2022/03/15 05:06:33;;;;;;;;;;;;;;;8.02;30.13;101268.72;4488694;31;34286;-65
2022/03/15 05:09:02;;;;;;;;;;;;;;;8.26;29.35;101264.22;4490278;31;35124;-66
2022/03/15 05:11:31;;;;;;;;;;;;;;;8.30;29.19;101263.13;4484713;31;31921;-64
2022/03/15 05:13:59;;;;;;;;;;;;;;;8.51;28.61;101267.63;4490056;31;33089;-64
2022/03/15 05:16:28;;;;;;;;;;;;;;;8.02;30.17;101266.91;4484195;31;35125;-67
2022/03/15 05:18:57;;;;;;;;;;;;;;;8.38;29.16;101269.94;4491422;31;33949;-65
2022/03/15 05:21:26;;;;;;;;;;;;;;;8.27;29.49;101269.47;4480842;31;34507;-64
2022/03/15 05:23:54;;;;;;;;;;;;;;;8.32;29.11;101274.63;4490099;31;34187;-65
2022/03/15 05:26:23;;;;;;;;;;;;;;;8.40;28.49;101265.38;4497586;31;34369;-65
2022/03/15 05:28:51;;;;;;;;;;;;;;;8.27;28.84;101261.47;4492263;31;32985;-65
2022/03/15 05:31:28;;;;;;;;;;;;;;;8.26;28.83;101264.22;4491825;31;33279;-67
2022/03/15 05:34:13;;;;;;;;;;;;;;;7.74;30.59;101268.94;4498870;31;32950;-64
2022/03/15 05:36:52;;;;;;;;;;;;;;;7.53;31.37;101262.62;4497079;31;33440;-65
2022/03/15 05:39:20;;;;;;;;;;;;;;;8.43;28.94;101263.53;4486492;31;32931;-67
2022/03/15 05:41:52;;;;;;;;;;;;;;;8.62;28.58;101256.50;4469379;32;34796;-66
2022/03/15 05:44:32;;;;;;;;;;;;;;;8.68;28.68;101260.69;4468602;32;33182;-65
2022/03/15 05:47:15;;;;;;;;;;;;;;;8.42;29.74;101262.66;4469213;32;33098;-64
2022/03/15 05:49:49;;;;;;;;;;;;;;;8.60;29.67;101264.56;4470855;32;33327;-64
2022/03/15 05:52:27;;;;;;;;;;;;;;;8.97;28.46;101264.78;4468579;32;32175;-65
2022/03/15 05:55:05;;;;;;;;;;;;;;;8.67;29.40;101261.63;4475079;32;33861;-65
2022/03/15 05:57:47;;;;;;;;;;;;;;;9.06;28.57;101262.56;4466806;32;35298;-66
2022/03/15 06:00:26;;;;;;;;;;;;;;;9.02;28.93;101252.06;4471105;32;33413;-66
2022/03/15 06:03:02;;;;;;;;;;;;;;;9.22;28.73;101260.09;4474156;32;32410;-65
2022/03/15 06:05:53;;;;;;;;;;;;;;;9.53;28.17;101256.87;4475608;32;34349;-67
2022/03/15 06:08:33;;;;;;;;;;;;;;;9.62;28.06;101262.72;4468470;32;34147;-67
2022/03/15 06:11:13;;;;;;;;;;;;;;;9.68;28.18;101265.97;4470760;32;33211;-64
2022/03/15 06:13:58;;;;;;;;;;;;;;;9.83;28.11;101264.41;4472895;32;33414;-66
2022/03/15 06:16:36;;;;;;;;;;;;;;;9.91;27.93;101262.22;4481433;32;33307;-67
2022/03/15 06:19:09;;;;;;;;;;;;;;;10.02;27.82;101259.91;4471240;32;33250;-65
2022/03/15 06:21:53;;;;;;;;;;;;;;;10.12;27.92;101265.66;4470444;32;33027;-65
2022/03/15 06:24:36;;;;;;;;;;;;;;;10.29;27.92;101266.69;4469719;32;32430;-66
2022/03/15 06:27:18;;;;;;;;;;;;;;;10.34;27.50;101278.91;4468546;32;33924;-67
2022/03/15 06:29:53;;;;;;;;;;;;;;;10.73;26.75;101270.66;4467183;32;33096;-67
2022/03/15 06:32:35;;;;;;;;;;;;;;;10.96;26.77;101274.84;4468743;32;33246;-65
2022/03/15 06:35:14;;;;;;;;;;;;;;;10.48;27.73;101275.53;4476935;32;31966;-64
2022/03/15 06:37:51;;;;;;;;;;;;;;;10.60;27.51;101276.72;4468360;32;33027;-66
2022/03/15 06:40:33;;;;;;;;;;;;;;;10.60;27.52;101271.37;4462206;32;33235;-66
2022/03/15 06:43:12;;;;;;;;;;;;;;;11.00;26.67;101280.03;4466869;32;33529;-65
2022/03/15 06:45:55;;;;;;;;;;;;;;;10.99;27.17;101268.47;4468543;32;33488;-65
2022/03/15 06:48:34;;;;;;;;;;;;;;;11.17;27.12;101270.19;4459733;32;33974;-65
2022/03/15 06:51:12;;;;;;;;;;;;;;;11.10;27.29;101266.06;4457335;32;34141;-64
2022/03/15 06:53:57;;;;;;;;;;;;;;;10.68;27.72;101259.31;4454074;32;33763;-65
2022/03/15 06:56:31;;;;;;;;;;;;;;;10.59;28.02;101267.81;4465724;32;31999;-68
2022/03/15 06:59:11;;;;;;;;;;;;;;;10.82;27.95;101255.06;4463079;32;34434;-68
2022/03/15 07:01:43;;;;;;;;;;;;;;;10.86;27.50;101251.28;4458466;32;33241;-68
2022/03/15 07:04:18;;;;;;;;;;;;;;;10.29;28.29;101246.13;4466612;32;34474;-68
2022/03/15 07:06:50;;;;;;;;;;;;;;;11.02;27.29;101246.87;4468259;32;32139;-68
2022/03/15 07:09:29;;;;;;;;;;;;;;;10.23;27.65;101244.59;4461161;32;33500;-68
2022/03/15 07:12:04;;;;;;;;;;;;;;;10.36;27.55;101242.19;4460977;32;33995;-67
2022/03/15 07:14:37;;;;;;;;;;;;;;;9.89;28.40;101240.03;4461493;32;32717;-67
2022/03/15 07:17:13;;;;;;;;;;;;;;;9.96;28.19;101240.59;4460135;32;33461;-68
2022/03/15 07:19:46;;;;;;;;;;;;;;;10.06;28.40;101241.88;4468559;32;33261;-68
2022/03/15 07:22:17;;;;;;;;;;;;;;;9.82;28.30;101241.25;4454755;32;33249;-69
2022/03/15 07:24:54;;;;;;;;;;;;;;;10.26;28.09;101249.81;4452814;32;35013;-68
2022/03/15 07:27:34;;;;;;;;;;;;;;;10.64;27.70;101246.19;4458097;32;33547;-68
2022/03/15 07:30:11;;;;;;;;;;;;;;;11.24;26.58;101241.22;4452768;32;35291;-68
2022/03/15 07:32:47;;;;;;;;;;;;;;;11.08;26.50;101245.69;4460043;32;34390;-68
2022/03/15 07:35:32;;;;;;;;;;;;;;;11.97;25.88;101243.50;4467346;32;32285;-68
2022/03/15 07:38:13;;;;;;;;;;;;;;;11.16;25.82;101238.94;4457928;32;32184;-67
2022/03/15 07:40:49;;;;;;;;;;;;;;;11.56;25.79;101246.66;4420472;31;1057624;-68
2022/03/15 07:43:28;;;;;;;;;;;;;;;12.09;25.54;101240.97;4493018;31;34261;-68
2022/03/15 07:46:01;;;;;;;;;;;;;;;12.17;24.76;101248.59;4483706;31;33774;-69
2022/03/15 07:48:35;;;;;;;;;;;;;;;11.93;25.36;101248.16;4485405;31;34510;-69
2022/03/15 07:51:13;;;;;;;;;;;;;;;13.63;23.33;101250.56;4484306;31;32773;-69
2022/03/15 07:53:53;;;;;;;;;;;;;;;14.86;21.56;101235.22;4487627;31;33062;-69
2022/03/15 07:56:33;;;;;;;;;;;;;;;15.30;20.85;101244.72;4488717;31;32541;-69
2022/03/15 07:59:11;;;;;;;;;;;;;;;16.82;18.88;101242.53;4488733;31;32174;-68
2022/03/15 08:01:49;;;;;;;;;;;;;;;17.16;18.97;101238.03;4486425;31;34390;-68
2022/03/15 08:04:35;;;;;;;;;;;;;;;17.44;18.58;101238.56;4490185;31;33153;-68
2022/03/15 08:07:29;;;;;;;;;;;;;;;16.66;19.28;101241.94;4488514;31;33670;-69
2022/03/15 08:10:14;;;;;;;;;;;;;;;14.99;20.98;101235.22;4485505;31;32072;-68
2022/03/15 08:12:49;;;;;;;;;;;;;;;15.46;20.78;101241.81;4486461;31;34423;-69
2022/03/15 08:15:38;;;;;;;;;;;;;;;15.43;20.90;101237.50;4493039;31;33223;-69
2022/03/15 08:18:19;;;;;;;;;;;;;;;15.43;21.19;101248.28;4489613;31;34250;-69
2022/03/15 08:21:02;;;;;;;;;;;;;;;16.77;19.68;101240.19;4492991;31;32665;-68
2022/03/15 08:23:44;;;;;;;;;;;;;;;16.10;20.53;101233.59;4496887;31;34376;-69
2022/03/15 08:26:25;;;;;;;;;;;;;;;16.11;20.72;101225.34;4485918;31;33069;-68
2022/03/15 08:29:11;;;;;;;;;;;;;;;15.12;21.77;101234.28;4494084;31;33134;-68
2022/03/15 08:31:46;;;;;;;;;;;;;;;14.80;22.43;101230.25;4492592;31;33420;-67
2022/03/15 08:34:26;;;;;;;;;;;;;;;14.31;22.99;101226.31;4494823;31;34223;-67
2022/03/15 08:37:07;;;;;;;;;;;;;;;13.97;23.29;101228.56;4486205;31;33076;-67
2022/03/15 08:39:43;;;;;;;;;;;;;;;14.42;22.61;101229.19;4488529;31;32856;-67
2022/03/15 08:42:22;;;;;;;;;;;;;;;14.64;22.48;101219.69;4493183;31;31929;-68
2022/03/15 08:45:12;;;;;;;;;;;;;;;14.17;22.99;101221.88;4487842;31;32752;-68
2022/03/15 08:47:53;;;;;;;;;;;;;;;14.28;22.80;101212.22;4490988;31;34198;-67
2022/03/15 08:50:38;;;;;;;;;;;;;;;13.87;23.49;101215.84;4485889;31;33248;-68
2022/03/15 08:53:09;;;;;;;;;;;;;;;14.41;22.59;101199.63;4483111;31;32881;-68
2022/03/15 08:55:42;;;;;;;;;;;;;;;13.84;22.62;101205.25;4487552;31;34055;-67
2022/03/15 08:58:11;;;;;;;;;;;;;;;14.05;22.42;101198.44;4485308;31;33790;-67
2022/03/15 09:00:40;;;;;;;;;;;;;;;13.65;22.91;101198.38;4492392;31;32932;-67
2022/03/15 09:03:10;;;;;;;;;;;;;;;14.24;22.87;101197.22;4483163;31;33450;-64
2022/03/15 09:05:39;;;;;;;;;;;;;;;14.52;21.96;101197.13;4484125;31;34452;-66
2022/03/15 09:08:09;;;;;;;;;;;;;;;14.19;22.27;101186.78;4485051;31;33854;-64
2022/03/15 09:10:39;;;;;;;;;;;;;;;14.65;22.30;101189.91;4487612;31;33380;-65
2022/03/15 09:13:09;;;;;;;;;;;;;;;14.64;21.11;101179.25;4484214;31;33006;-65
2022/03/15 09:15:41;;;;;;;;;;;;;;;14.95;21.14;101180.66;4486019;31;34877;-64
2022/03/15 09:18:10;;;;;;;;;;;;;;;14.93;21.47;101174.53;4488703;31;33082;-65
2022/03/15 09:20:42;;;;;;;;;;;;;;;14.80;21.42;101169.16;4490256;31;35374;-65
2022/03/15 09:23:13;;;;;;;;;;;;;;;15.32;20.96;101168.13;4497859;31;32797;-65
2022/03/15 09:25:44;;;;;;;;;;;;;;;15.22;20.99;101172.47;4488331;31;34228;-64
2022/03/15 09:28:19;;;;;;;;;;;;;;;15.03;21.50;101162.13;4483457;31;34974;-66
2022/03/15 09:30:52;;;;;;;;;;;;;;;15.19;21.13;101151.09;4485798;31;35590;-64
2022/03/15 09:33:23;;;;;;;;;;;;;;;15.10;21.32;101154.47;4485875;31;32078;-65
2022/03/15 09:35:55;;;;;;;;;;;;;;;16.00;20.51;101147.84;4487232;31;33645;-65
2022/03/15 09:38:27;;;;;;;;;;;;;;;16.05;20.53;101148.38;4486529;31;34627;-64
2022/03/15 09:41:02;;;;;;;;;;;;;;;16.47;19.84;101146.06;4471348;31;34948;-65
2022/03/15 09:43:38;;;;;;;;;;;;;;;16.65;19.24;101146.47;4493140;31;33468;-65
2022/03/15 09:46:10;;;;;;;;;;;;;;;15.86;19.27;101145.34;4487331;31;32696;-65
2022/03/15 09:49:00;;;;;;;;;;;;;;;15.70;19.58;101142.06;4485888;31;34458;-65
2022/03/15 09:51:32;;;;;;;;;;;;;;;16.41;19.52;101143.84;4473031;31;32860;-66
2022/03/15 09:54:03;;;;;;;;;;;;;;;15.49;20.58;101141.75;4490000;31;33342;-67
2022/03/15 09:56:38;;;;;;;;;;;;;;;14.94;21.27;101143.03;4495620;31;34023;-66
2022/03/15 09:59:14;;;;;;;;;;;;;;;15.74;20.56;101141.72;4486518;31;34222;-66
2022/03/15 10:01:44;;;;;;;;;;;;;;;15.08;21.04;101132.97;4487036;31;32837;-65
2022/03/15 10:04:14;;;;;;;;;;;;;;;15.02;21.23;101140.66;4495023;31;34778;-66
2022/03/15 10:06:43;;;;;;;;;;;;;;;16.14;20.57;101133.28;4488594;31;34680;-66
2022/03/15 10:09:16;;;;;;;;;;;;;;;15.78;20.80;101126.13;4484101;31;33256;-65
2022/03/15 10:11:46;;;;;;;;;;;;;;;15.16;21.43;101139.69;4485241;31;34534;-65
2022/03/15 10:14:17;;;;;;;;;;;;;;;15.47;21.00;101132.91;4491578;31;32161;-66
2022/03/15 10:16:47;;;;;;;;;;;;;;;15.49;20.92;101134.53;4484965;31;32569;-66
2022/03/15 10:19:16;;;;;;;;;;;;;;;16.38;20.43;101130.56;4485185;31;34482;-66
2022/03/15 10:21:57;;;;;;;;;;;;;;;16.19;20.72;101120.31;4487417;31;33997;-65
2022/03/15 10:24:27;;;;;;;;;;;;;;;15.49;21.19;101123.72;4494064;31;34077;-65
2022/03/15 10:26:58;;;;;;;;;;;;;;;15.81;21.29;101112.41;4489549;31;32930;-67
2022/03/15 10:29:28;;;;;;;;;;;;;;;16.68;20.34;101121.03;4490082;31;32812;-65
2022/03/15 10:32:04;;;;;;;;;;;;;;;16.52;20.32;101124.09;4491252;31;34082;-65
2022/03/15 10:34:32;;;;;;;;;;;;;;;16.39;20.55;101105.25;4492241;31;33559;-65
2022/03/15 10:37:03;;;;;;;;;;;;;;;15.54;21.30;101104.53;4488258;31;32909;-65
2022/03/15 10:39:33;;;;;;;;;;;;;;;15.37;21.51;101103.03;4484899;31;33405;-66
2022/03/15 10:42:05;;;;;;;;;;;;;;;15.44;21.63;101084.56;4488053;31;34229;-66
2022/03/15 10:44:36;;;;;;;;;;;;;;;16.12;20.97;101085.81;4493098;31;33035;-66
2022/03/15 10:47:07;;;;;;;;;;;;;;;15.17;21.95;101090.16;4489976;31;32718;-66
2022/03/15 10:49:46;;;;;;;;;;;;;;;15.57;21.88;101080.87;4491829;31;33004;-65
2022/03/15 10:52:30;;;;;;;;;;;;;;;16.33;20.86;101078.72;4486000;31;34273;-66
2022/03/15 10:55:09;;;;;;;;;;;;;;;15.93;21.14;101070.13;4486118;31;33229;-66
2022/03/15 10:57:50;;;;;;;;;;;;;;;15.63;21.38;101070.56;4485364;31;34211;-66
2022/03/15 11:00:26;;;;;;;;;;;;;;;17.14;19.83;101064.19;4484618;31;33678;-66
2022/03/15 11:02:58;;;;;;;;;;;;;;;16.58;20.30;101060.59;4491347;31;34420;-64
2022/03/15 11:05:36;;;;;;;;;;;;;;;16.57;20.54;101051.63;4485079;31;32354;-64
2022/03/15 11:08:10;;;;;;;;;;;;;;;16.37;20.69;101039.69;4486809;31;33917;-65
2022/03/15 11:10:41;;;;;;;;;;;;;;;16.18;20.82;101031.28;4484670;31;34075;-66
2022/03/15 11:13:13;;;;;;;;;;;;;;;16.13;20.88;101022.69;4490259;31;34153;-65
2022/03/15 11:15:47;;;;;;;;;;;;;;;16.12;21.16;101016.44;4492074;31;32046;-65
2022/03/15 11:18:20;;;;;;;;;;;;;;;15.86;21.27;101004.94;4486742;31;32582;-65
2022/03/15 11:20:52;;;;;;;;;;;;;;;16.17;20.53;101008.81;4484341;31;32968;-66
2022/03/15 11:23:25;;;;;;;;;;;;;;;16.71;20.21;101005.41;4486623;31;33683;-65
2022/03/15 11:25:58;;;;;;;;;;;;;;;16.61;20.01;100996.31;4488033;31;33561;-64
2022/03/15 11:28:28;;;;;;;;;;;;;;;17.02;19.66;100994.84;4488309;31;32769;-65
2022/03/15 11:30:58;;;;;;;;;;;;;;;16.77;19.62;100987.88;4487668;31;34717;-64
2022/03/15 11:33:29;;;;;;;;;;;;;;;17.48;19.00;100974.78;4486507;31;33302;-66
2022/03/15 11:36:05;;;;;;;;;;;;;;;18.21;18.65;100962.22;4487474;31;33597;-66
2022/03/15 11:38:34;;;;;;;;;;;;;;;17.12;18.90;100955.22;4486036;31;34324;-65
2022/03/15 11:41:02;;;;;;;;;;;;;;;17.19;18.80;100937.50;4496538;31;34557;-66
2022/03/15 11:43:40;;;;;;;;;;;;;;;17.34;19.10;100939.91;4491285;31;32934;-66
2022/03/15 11:46:30;;;;;;;;;;;;;;;17.38;18.89;100935.97;4481367;31;34127;-65
2022/03/15 11:49:18;;;;;;;;;;;;;;;16.98;18.96;100942.88;4482297;31;34335;-65
2022/03/15 11:52:01;;;;;;;;;;;;;;;16.07;20.08;100927.66;4482730;31;34687;-66
2022/03/15 11:54:43;;;;;;;;;;;;;;;16.73;19.63;100921.50;4467930;31;33502;-63
2022/03/15 11:57:31;;;;;;;;;;;;;;;16.69;19.33;100918.19;4469854;31;33494;-65
2022/03/15 12:00:00;;;;;;;;;;;;;;;17.25;18.97;100892.00;4484046;31;33124;-64
2022/03/15 12:02:38;;;;;;;;;;;;;;;17.95;18.69;100887.81;4485569;31;34346;-64
2022/03/15 12:05:17;;;;;;;;;;;;;;;18.81;17.77;100878.25;4491436;31;34289;-64
2022/03/15 12:07:46;;;;;;;;;;;;;;;17.75;18.47;100882.22;4485313;31;33481;-62
2022/03/15 12:10:22;;;;;;;;;;;;;;;16.76;19.57;100876.19;4488208;31;33869;-63
2022/03/15 12:13:03;;;;;;;;;;;;;;;16.71;19.57;100877.50;4485220;31;35902;-64
2022/03/15 12:15:35;;;;;;;;;;;;;;;17.52;19.20;100867.97;4485104;31;33646;-63
2022/03/15 12:18:23;;;;;;;;;;;;;;;17.61;19.11;100866.31;4488620;31;33429;-63
2022/03/15 12:20:59;;;;;;;;;;;;;;;16.89;19.68;100865.19;4481547;31;34234;-64
2022/03/15 12:23:27;;;;;;;;;;;;;;;17.57;18.95;100865.72;4485431;31;33649;-63
2022/03/15 12:25:55;;;;;;;;;;;;;;;18.11;18.54;100847.53;4492096;31;34167;-64
2022/03/15 12:28:27;;;;;;;;;;;;;;;17.30;18.98;100850.00;4489008;31;33378;-64
2022/03/15 12:31:02;;;;;;;;;;;;;;;17.00;19.32;100853.47;4473892;31;33992;-65
2022/03/15 12:33:30;;;;;;;;;;;;;;;17.25;19.50;100848.69;4494093;31;34374;-63
2022/03/15 12:36:04;;;;;;;;;;;;;;;17.28;19.74;100851.16;4497335;31;33105;-64
2022/03/15 12:38:35;;;;;;;;;;;;;;;17.14;19.90;100846.87;4489704;31;34459;-66
2022/03/15 12:41:04;;;;;;;;;;;;;;;17.30;19.73;100849.16;4487532;31;33109;-63
2022/03/15 12:43:31;;;;;;;;;;;;;;;17.42;19.55;100835.41;4487725;31;34099;-65
2022/03/15 12:46:00;;;;;;;;;;;;;;;17.14;19.94;100839.66;4491324;31;33173;-63
2022/03/15 12:48:36;;;;;;;;;;;;;;;17.88;19.46;100825.16;4469442;31;34488;-64
2022/03/15 12:51:04;;;;;;;;;;;;;;;17.27;20.02;100825.06;4484700;31;32891;-64
2022/03/15 12:53:33;;;;;;;;;;;;;;;17.14;20.38;100820.72;4475075;31;34252;-64
2022/03/15 12:56:01;;;;;;;;;;;;;;;17.85;19.63;100803.78;4491339;31;33926;-62
2022/03/15 12:58:30;;;;;;;;;;;;;;;17.85;20.04;100801.09;4484249;31;33042;-63
2022/03/15 13:00:58;;;;;;;;;;;;;;;17.91;19.59;100797.81;4485557;31;34114;-63
2022/03/15 13:03:26;;;;;;;;;;;;;;;17.36;19.93;100803.47;4485405;31;32930;-68
2022/03/15 13:05:55;;;;;;;;;;;;;;;17.15;20.23;100808.06;4488120;31;34172;-66
2022/03/15 13:08:23;;;;;;;;;;;;;;;17.27;20.29;100814.22;4484161;31;34533;-66